Time;durP1;ratioP1;P1;durP2;ratioP2;P2;SDS_P1;SDS_P2;PMS_P1;PMS_P2;Temp;Humidity;BMP_temperature;BMP_pressure;BME280_temperature;BME280_humidity;BME280_pressure;Samples;Min_cycle;Max_cycle;Signal;HPM_P1;HPM_P2
2022/10/14 05:08:50;;;;;;;;;;;;;;;20.72;58.30;99373.59;1943981;72;20267;-78
2022/10/14 05:11:39;;;;;;;;;;;;;;;21.06;57.83;99380.71;1919682;73;20246;-80
2022/10/14 05:14:27;;;;;;;;;;;;;;;21.85;56.42;99375.09;1913031;74;20162;-80
2022/10/14 05:17:17;;;;;;;;;;;;;;;22.53;55.11;99375.48;1908840;74;20288;-82
2022/10/14 05:20:05;;;;;;;;;;;;;;;23.08;53.94;99369.66;1906675;73;20262;-81
2022/10/14 05:22:53;;;;;;;;;;;;;;;23.52;52.86;99376.37;1886698;74;20159;-78
2022/10/14 05:25:41;;;;;;;;;;;;;;;23.87;51.83;99372.95;1917797;73;20200;-79
2022/10/14 05:28:29;;;;;;;;;;;;;;;24.18;51.14;99368.33;1914133;74;20232;-77
2022/10/14 05:31:17;;;;;;;;;;;;;;;24.41;50.44;99362.67;1914558;74;20181;-77
2022/10/14 05:34:06;;;;;;;;;;;;;;;24.65;49.93;99371.58;1910169;74;20285;-77
2022/10/14 05:36:55;;;;;;;1.50;1.40;;;;;;;24.77;49.36;99370.98;1906053;74;28059;-76
2022/10/14 05:39:44;;;;;;;1.70;1.60;;;;;;;24.92;48.95;99360.77;1896631;75;28266;-76
2022/10/14 05:42:32;;;;;;;1.60;1.50;;;;;;;25.05;48.65;99363.98;1890191;75;38291;-76
2022/10/14 05:45:22;;;;;;;1.47;1.37;;;;;;;25.16;48.38;99356.69;1887671;74;28154;-76
2022/10/14 05:48:13;;;;;;;1.95;1.60;;;;;;;25.24;48.15;99361.22;1885995;74;28232;-79
2022/10/14 05:51:04;;;;;;;1.70;1.60;;;;;;;25.24;48.01;99354.34;1890392;74;28138;-80
2022/10/14 05:53:55;;;;;;;1.77;1.67;;;;;;;25.29;47.92;99350.29;1859881;73;28308;-79
2022/10/14 05:56:45;;;;;;;3.22;1.82;;;;;;;25.35;47.63;99354.75;1892866;74;28239;-80
2022/10/14 05:59:34;;;;;;;1.82;1.72;;;;;;;25.41;47.22;99352.91;1897688;73;28336;-78
2022/10/14 06:02:22;;;;;;;2.00;1.60;;;;;;;25.41;46.88;99351.53;1893115;75;28760;-85
2022/10/14 06:05:10;;;;;;;1.87;1.60;;;;;;;25.43;46.76;99354.02;1889005;74;28191;-74
2022/10/14 06:07:59;;;;;;;2.62;1.60;;;;;;;25.41;46.53;99353.72;1897184;73;28273;-74
2022/10/14 06:10:48;;;;;;;1.82;1.60;;;;;;;25.44;46.40;99352.41;1909267;73;38466;-74
2022/10/14 06:13:37;;;;;;;3.17;1.60;;;;;;;25.46;46.21;99348.88;1897752;74;28155;-74
2022/10/14 06:16:27;;;;;;;1.67;1.57;;;;;;;25.49;46.04;99349.72;1902656;73;28324;-74
2022/10/14 06:19:15;;;;;;;1.55;1.45;;;;;;;25.48;45.92;99350.83;1903175;74;28125;-73
2022/10/14 06:22:04;;;;;;;1.80;1.40;;;;;;;25.50;45.85;99355.52;1902802;74;28329;-73
2022/10/14 06:24:54;;;;;;;2.62;1.55;;;;;;;25.50;45.85;99355.52;1901582;74;28188;-74
2022/10/14 06:27:42;;;;;;;1.50;1.40;;;;;;;25.51;45.51;99365.41;1905288;74;28096;-75
2022/10/14 06:30:31;;;;;;;2.80;2.00;;;;;;;25.51;45.42;99368.17;1906957;73;28159;-73
2022/10/14 06:33:20;;;;;;;1.40;1.30;;;;;;;25.52;45.29;99373.97;1903412;73;28132;-73
2022/10/14 06:36:10;;;;;;;1.40;1.30;;;;;;;25.51;45.25;99380.55;1907456;73;28191;-76
2022/10/14 06:38:59;;;;;;;1.60;1.50;;;;;;;25.51;45.23;99381.92;1913070;73;28055;-75
2022/10/14 06:41:47;;;;;;;2.52;1.50;;;;;;;25.49;45.17;99386.85;1900471;74;28294;-74
2022/10/14 06:44:37;;;;;;;1.90;1.57;;;;;;;25.50;45.14;99390.44;1906939;74;28142;-74
2022/10/14 06:47:25;;;;;;;1.85;1.50;;;;;;;25.51;45.03;99390.17;1912457;73;28190;-74
2022/10/14 06:50:13;;;;;;;1.60;1.50;;;;;;;25.49;45.06;99393.73;1905987;73;28064;-74
2022/10/14 06:53:02;;;;;;;2.10;1.90;;;;;;;25.49;45.02;99394.27;1904824;74;28245;-74
2022/10/14 06:55:52;;;;;;;1.45;1.25;;;;;;;25.48;45.04;99403.62;1902492;74;28653;-74
2022/10/14 06:58:40;;;;;;;2.85;1.40;;;;;;;25.49;44.97;99410.23;1908074;73;28275;-74
2022/10/14 07:01:28;;;;;;;1.60;1.50;;;;;;;25.50;44.91;99411.91;1901752;74;28095;-74
2022/10/14 07:04:17;;;;;;;1.30;1.30;;;;;;;25.50;44.85;99406.41;1911098;73;28146;-74
2022/10/14 07:07:07;;;;;;;2.02;1.50;;;;;;;25.50;44.82;99411.06;1904641;74;28103;-74
2022/10/14 07:09:56;;;;;;;1.40;1.30;;;;;;;25.50;44.77;99409.69;1900832;74;28221;-74
2022/10/14 07:12:45;;;;;;;2.50;1.40;;;;;;;25.51;44.78;99421.00;1880394;74;28014;-74
2022/10/14 07:15:33;;;;;;;1.98;1.50;;;;;;;25.51;44.76;99421.80;1878228;74;28108;-75
2022/10/14 07:18:22;;;;;;;1.30;1.20;;;;;;;25.51;44.71;99424.55;1878922;74;28187;-74
2022/10/14 07:21:10;;;;;;;2.72;1.60;;;;;;;25.49;44.68;99423.98;1889763;74;28068;-75
2022/10/14 07:23:58;;;;;;;1.37;1.25;;;;;;;25.51;44.70;99436.13;1879234;74;28870;-75
2022/10/14 07:26:47;;;;;;;1.45;1.35;;;;;;;25.50;44.72;99433.07;1894022;74;28121;-75
2022/10/14 07:29:35;;;;;;;2.85;1.40;;;;;;;25.50;44.67;99433.91;1881923;74;28245;-76
2022/10/14 07:32:24;;;;;;;1.50;1.40;;;;;;;25.46;44.74;99437.42;1877471;74;28214;-74
2022/10/14 07:35:12;;;;;;;1.37;1.35;;;;;;;25.47;44.73;99433.57;1863186;75;28306;-76
2022/10/14 07:38:00;;;;;;;1.85;1.30;;;;;;;25.44;44.77;99434.10;1856256;74;28188;-74
2022/10/14 07:41:00;;;;;;;2.70;1.62;;;;;;;25.41;44.78;99441.72;1876830;74;28210;-74
2022/10/14 07:43:54;;;;;;;1.50;1.40;;;;;;;25.43;44.77;99442.86;1882207;74;28279;-74
2022/10/14 07:46:45;;;;;;;1.60;1.50;;;;;;;25.46;44.72;99447.05;1890901;74;28092;-74
2022/10/14 10:19:33;;;;;;;3.60;1.72;;;;;;;20.98;57.24;99418.38;1936147;72;28012;-74
2022/10/14 10:22:35;;;;;;;2.02;1.50;;;;;;;21.35;56.67;99424.20;1906462;73;28198;-74
2022/10/14 10:25:27;;;;;;;19.37;10.23;;;;;;;22.16;55.24;99413.66;1901869;75;28086;-75
2022/10/14 10:28:29;;;;;;;89.95;48.25;;;;;;;22.89;54.09;99401.84;1911591;73;28125;-72
2022/10/14 18:07:39;;;;;;;3.70;1.70;;;;;;;20.84;58.80;99295.36;1919713;72;28055;-74
2022/10/14 18:10:27;;;;;;;6.20;1.70;;;;;;;21.16;58.32;99299.08;1869190;75;28250;-72
